sensor_id;sensor_type;location;lat;lon;timestamp;temperature;humidity
12386;DHT22;6257;57.634;18.310;2023-05-07T00:01:42;2.00;99.90
12386;DHT22;6257;57.634;18.310;2023-05-07T00:04:09;2.00;99.90
12386;DHT22;6257;57.634;18.310;2023-05-07T00:06:36;2.00;99.90
12386;DHT22;6257;57.634;18.310;2023-05-07T00:09:04;2.00;99.90
12386;DHT22;6257;57.634;18.310;2023-05-07T00:11:32;2.00;99.90
12386;DHT22;6257;57.634;18.310;2023-05-07T00:13:59;2.00;99.90
12386;DHT22;6257;57.634;18.310;2023-05-07T00:16:26;2.00;99.90
12386;DHT22;6257;57.634;18.310;2023-05-07T00:18:53;1.90;99.90
12386;DHT22;6257;57.634;18.310;2023-05-07T00:21:20;2.00;99.90
12386;DHT22;6257;57.634;18.310;2023-05-07T00:23:48;2.00;99.90
12386;DHT22;6257;57.634;18.310;2023-05-07T00:26:16;2.00;99.90
12386;DHT22;6257;57.634;18.310;2023-05-07T00:28:43;1.90;99.90
12386;DHT22;6257;57.634;18.310;2023-05-07T00:31:10;2.00;99.90
12386;DHT22;6257;57.634;18.310;2023-05-07T00:33:38;1.90;99.90
12386;DHT22;6257;57.634;18.310;2023-05-07T00:36:05;1.90;99.90
12386;DHT22;6257;57.634;18.310;2023-05-07T00:38:32;1.90;99.90
12386;DHT22;6257;57.634;18.310;2023-05-07T00:41:00;1.90;99.90
12386;DHT22;6257;57.634;18.310;2023-05-07T00:43:29;1.90;99.90
12386;DHT22;6257;57.634;18.310;2023-05-07T00:45:56;1.90;99.90
12386;DHT22;6257;57.634;18.310;2023-05-07T00:48:23;1.80;99.90
12386;DHT22;6257;57.634;18.310;2023-05-07T00:50:51;1.80;99.90
12386;DHT22;6257;57.634;18.310;2023-05-07T00:53:19;1.90;99.90
12386;DHT22;6257;57.634;18.310;2023-05-07T00:55:46;1.90;99.90
12386;DHT22;6257;57.634;18.310;2023-05-07T00:58:13;1.90;99.90
12386;DHT22;6257;57.634;18.310;2023-05-07T01:00:42;1.90;99.90
12386;DHT22;6257;57.634;18.310;2023-05-07T01:03:09;1.80;99.90
12386;DHT22;6257;57.634;18.310;2023-05-07T01:05:36;1.90;99.90
12386;DHT22;6257;57.634;18.310;2023-05-07T01:08:04;1.80;99.90
12386;DHT22;6257;57.634;18.310;2023-05-07T01:10:32;1.80;99.90
12386;DHT22;6257;57.634;18.310;2023-05-07T01:12:59;3.70;99.90
12386;DHT22;6257;57.634;18.310;2023-05-07T01:15:27;1.90;99.90
12386;DHT22;6257;57.634;18.310;2023-05-07T01:20:23;5.60;99.90
12386;DHT22;6257;57.634;18.310;2023-05-07T01:22:52;1.80;99.90
12386;DHT22;6257;57.634;18.310;2023-05-07T01:25:20;1.80;99.90
12386;DHT22;6257;57.634;18.310;2023-05-07T01:27:47;1.70;99.90
12386;DHT22;6257;57.634;18.310;2023-05-07T01:30:14;1.80;99.90
12386;DHT22;6257;57.634;18.310;2023-05-07T01:32:44;1.80;99.90
12386;DHT22;6257;57.634;18.310;2023-05-07T01:35:17;1.70;99.90
12386;DHT22;6257;57.634;18.310;2023-05-07T01:37:45;1.70;99.90
12386;DHT22;6257;57.634;18.310;2023-05-07T01:42:43;1.70;99.90
12386;DHT22;6257;57.634;18.310;2023-05-07T01:45:10;1.70;99.90
12386;DHT22;6257;57.634;18.310;2023-05-07T01:47:39;1.60;99.90
12386;DHT22;6257;57.634;18.310;2023-05-07T01:50:07;1.70;99.90
12386;DHT22;6257;57.634;18.310;2023-05-07T01:52:36;1.60;99.90
12386;DHT22;6257;57.634;18.310;2023-05-07T01:55:05;1.70;99.90
12386;DHT22;6257;57.634;18.310;2023-05-07T02:00:01;1.60;99.90
12386;DHT22;6257;57.634;18.310;2023-05-07T02:02:31;1.50;99.90
12386;DHT22;6257;57.634;18.310;2023-05-07T02:04:59;1.50;99.90
12386;DHT22;6257;57.634;18.310;2023-05-07T02:07:27;1.50;99.90
12386;DHT22;6257;57.634;18.310;2023-05-07T02:09:54;1.50;99.90
12386;DHT22;6257;57.634;18.310;2023-05-07T02:12:22;1.50;99.90
12386;DHT22;6257;57.634;18.310;2023-05-07T02:17:18;1.50;99.90
12386;DHT22;6257;57.634;18.310;2023-05-07T02:19:45;1.50;99.90
12386;DHT22;6257;57.634;18.310;2023-05-07T02:22:12;1.40;99.90
12386;DHT22;6257;57.634;18.310;2023-05-07T02:24:39;2.50;99.90
12386;DHT22;6257;57.634;18.310;2023-05-07T02:27:06;1.40;99.90
12386;DHT22;6257;57.634;18.310;2023-05-07T02:29:33;1.50;99.90
12386;DHT22;6257;57.634;18.310;2023-05-07T02:34:29;1.50;99.90
12386;DHT22;6257;57.634;18.310;2023-05-07T02:36:56;1.50;99.90
12386;DHT22;6257;57.634;18.310;2023-05-07T02:39:23;1.50;99.90
12386;DHT22;6257;57.634;18.310;2023-05-07T02:41:50;1.60;99.90
12386;DHT22;6257;57.634;18.310;2023-05-07T02:44:17;1.60;99.90
12386;DHT22;6257;57.634;18.310;2023-05-07T02:46:44;1.60;99.90
12386;DHT22;6257;57.634;18.310;2023-05-07T02:49:12;1.60;99.90
12386;DHT22;6257;57.634;18.310;2023-05-07T02:51:39;1.60;99.90
12386;DHT22;6257;57.634;18.310;2023-05-07T02:54:06;1.60;99.90
12386;DHT22;6257;57.634;18.310;2023-05-07T02:56:33;1.60;99.90
12386;DHT22;6257;57.634;18.310;2023-05-07T02:59:01;1.60;99.90
12386;DHT22;6257;57.634;18.310;2023-05-07T03:01:27;1.70;99.90
12386;DHT22;6257;57.634;18.310;2023-05-07T03:03:54;1.60;99.90
12386;DHT22;6257;57.634;18.310;2023-05-07T03:11:19;1.60;99.90
12386;DHT22;6257;57.634;18.310;2023-05-07T03:13:46;1.60;99.90
12386;DHT22;6257;57.634;18.310;2023-05-07T03:16:15;1.70;99.90
12386;DHT22;6257;57.634;18.310;2023-05-07T03:18:42;1.70;99.90
12386;DHT22;6257;57.634;18.310;2023-05-07T03:21:10;1.80;99.90
12386;DHT22;6257;57.634;18.310;2023-05-07T03:26:05;1.90;99.90
12386;DHT22;6257;57.634;18.310;2023-05-07T03:28:32;2.00;99.90
12386;DHT22;6257;57.634;18.310;2023-05-07T03:31:00;2.00;99.90
12386;DHT22;6257;57.634;18.310;2023-05-07T03:33:27;2.10;99.90
12386;DHT22;6257;57.634;18.310;2023-05-07T03:35:54;2.10;99.90
12386;DHT22;6257;57.634;18.310;2023-05-07T03:38:21;2.20;99.90
12386;DHT22;6257;57.634;18.310;2023-05-07T03:43:17;2.30;99.90
12386;DHT22;6257;57.634;18.310;2023-05-07T03:45:44;2.40;99.90
12386;DHT22;6257;57.634;18.310;2023-05-07T03:48:12;2.50;99.90
12386;DHT22;6257;57.634;18.310;2023-05-07T03:50:39;2.60;99.90
12386;DHT22;6257;57.634;18.310;2023-05-07T03:53:06;2.70;99.90
12386;DHT22;6257;57.634;18.310;2023-05-07T03:55:33;2.80;99.90
12386;DHT22;6257;57.634;18.310;2023-05-07T03:58:02;3.00;99.90
12386;DHT22;6257;57.634;18.310;2023-05-07T04:00:29;3.10;99.90
12386;DHT22;6257;57.634;18.310;2023-05-07T04:02:59;3.20;99.90
12386;DHT22;6257;57.634;18.310;2023-05-07T04:05:26;3.30;99.90
12386;DHT22;6257;57.634;18.310;2023-05-07T04:07:53;3.50;99.90
12386;DHT22;6257;57.634;18.310;2023-05-07T04:10:20;3.70;99.90
12386;DHT22;6257;57.634;18.310;2023-05-07T04:12:47;4.00;99.90
12386;DHT22;6257;57.634;18.310;2023-05-07T04:17:43;4.30;99.90
12386;DHT22;6257;57.634;18.310;2023-05-07T04:20:13;4.60;99.90
12386;DHT22;6257;57.634;18.310;2023-05-07T04:22:41;4.80;99.90
12386;DHT22;6257;57.634;18.310;2023-05-07T04:25:09;4.90;99.90
12386;DHT22;6257;57.634;18.310;2023-05-07T04:27:37;5.00;99.90
12386;DHT22;6257;57.634;18.310;2023-05-07T04:30:05;5.20;99.90
12386;DHT22;6257;57.634;18.310;2023-05-07T04:32:34;5.30;99.90
12386;DHT22;6257;57.634;18.310;2023-05-07T04:37:29;5.50;99.90
12386;DHT22;6257;57.634;18.310;2023-05-07T04:39:58;5.60;99.90
12386;DHT22;6257;57.634;18.310;2023-05-07T04:42:26;5.70;99.90
12386;DHT22;6257;57.634;18.310;2023-05-07T04:44:53;5.90;99.90
12386;DHT22;6257;57.634;18.310;2023-05-07T04:47:20;6.10;99.90
12386;DHT22;6257;57.634;18.310;2023-05-07T04:52:16;6.50;99.90
12386;DHT22;6257;57.634;18.310;2023-05-07T04:54:43;6.70;99.90
12386;DHT22;6257;57.634;18.310;2023-05-07T04:57:10;6.80;99.90
12386;DHT22;6257;57.634;18.310;2023-05-07T04:59:37;6.80;99.90
12386;DHT22;6257;57.634;18.310;2023-05-07T05:02:04;7.00;99.90
12386;DHT22;6257;57.634;18.310;2023-05-07T05:04:31;7.10;99.90
12386;DHT22;6257;57.634;18.310;2023-05-07T05:09:29;7.10;99.90
12386;DHT22;6257;57.634;18.310;2023-05-07T05:11:56;6.90;99.90
12386;DHT22;6257;57.634;18.310;2023-05-07T05:14:23;6.90;99.90
12386;DHT22;6257;57.634;18.310;2023-05-07T05:16:50;6.90;99.90
12386;DHT22;6257;57.634;18.310;2023-05-07T05:19:17;6.90;99.90
12386;DHT22;6257;57.634;18.310;2023-05-07T05:21:44;6.90;99.90
12386;DHT22;6257;57.634;18.310;2023-05-07T05:26:40;7.00;99.90
12386;DHT22;6257;57.634;18.310;2023-05-07T05:29:07;7.00;99.90
12386;DHT22;6257;57.634;18.310;2023-05-07T05:31:34;7.00;99.90
12386;DHT22;6257;57.634;18.310;2023-05-07T05:34:02;7.10;99.90
12386;DHT22;6257;57.634;18.310;2023-05-07T05:36:29;7.10;99.90
12386;DHT22;6257;57.634;18.310;2023-05-07T05:38:57;7.20;99.90
12386;DHT22;6257;57.634;18.310;2023-05-07T05:43:53;7.30;99.90
12386;DHT22;6257;57.634;18.310;2023-05-07T05:46:20;7.30;99.90
12386;DHT22;6257;57.634;18.310;2023-05-07T05:48:47;7.30;99.90
12386;DHT22;6257;57.634;18.310;2023-05-07T05:51:14;7.40;99.90
12386;DHT22;6257;57.634;18.310;2023-05-07T05:53:41;7.50;99.90
12386;DHT22;6257;57.634;18.310;2023-05-07T05:56:08;7.50;99.90
12386;DHT22;6257;57.634;18.310;2023-05-07T05:58:37;7.60;99.90
12386;DHT22;6257;57.634;18.310;2023-05-07T06:01:04;7.70;99.90
12386;DHT22;6257;57.634;18.310;2023-05-07T06:03:31;7.80;99.90
12386;DHT22;6257;57.634;18.310;2023-05-07T06:05:59;7.80;99.90
12386;DHT22;6257;57.634;18.310;2023-05-07T06:08:30;7.90;99.90
12386;DHT22;6257;57.634;18.310;2023-05-07T06:10:57;7.90;99.90
12386;DHT22;6257;57.634;18.310;2023-05-07T06:13:24;8.00;99.90
12386;DHT22;6257;57.634;18.310;2023-05-07T06:15:52;8.10;99.90
12386;DHT22;6257;57.634;18.310;2023-05-07T06:18:19;8.20;99.90
12386;DHT22;6257;57.634;18.310;2023-05-07T06:20:46;8.30;99.90
12386;DHT22;6257;57.634;18.310;2023-05-07T06:23:14;8.30;99.90
12386;DHT22;6257;57.634;18.310;2023-05-07T06:25:41;8.40;99.90
12386;DHT22;6257;57.634;18.310;2023-05-07T06:28:08;8.50;99.90
12386;DHT22;6257;57.634;18.310;2023-05-07T06:30:36;8.60;99.90
12386;DHT22;6257;57.634;18.310;2023-05-07T06:33:05;8.60;99.90
12386;DHT22;6257;57.634;18.310;2023-05-07T06:35:32;8.60;99.90
12386;DHT22;6257;57.634;18.310;2023-05-07T06:38:00;8.60;99.90
12386;DHT22;6257;57.634;18.310;2023-05-07T06:40:27;8.70;99.90
12386;DHT22;6257;57.634;18.310;2023-05-07T06:42:54;8.70;99.90
12386;DHT22;6257;57.634;18.310;2023-05-07T06:45:21;8.80;99.90
12386;DHT22;6257;57.634;18.310;2023-05-07T06:47:48;8.90;99.90
12386;DHT22;6257;57.634;18.310;2023-05-07T06:52:44;9.00;99.90
12386;DHT22;6257;57.634;18.310;2023-05-07T06:55:11;9.10;99.90
12386;DHT22;6257;57.634;18.310;2023-05-07T06:57:38;9.30;99.90
12386;DHT22;6257;57.634;18.310;2023-05-07T07:00:06;9.40;99.90
12386;DHT22;6257;57.634;18.310;2023-05-07T07:02:34;9.60;99.90
12386;DHT22;6257;57.634;18.310;2023-05-07T07:05:01;9.80;99.90
12386;DHT22;6257;57.634;18.310;2023-05-07T07:07:29;10.10;99.90
12386;DHT22;6257;57.634;18.310;2023-05-07T07:09:56;10.40;99.90
12386;DHT22;6257;57.634;18.310;2023-05-07T07:12:23;10.60;99.90
12386;DHT22;6257;57.634;18.310;2023-05-07T07:14:51;10.90;99.90
12386;DHT22;6257;57.634;18.310;2023-05-07T07:17:18;10.90;99.90
12386;DHT22;6257;57.634;18.310;2023-05-07T07:19:46;11.00;99.90
12386;DHT22;6257;57.634;18.310;2023-05-07T07:22:13;11.10;99.90
12386;DHT22;6257;57.634;18.310;2023-05-07T07:24:41;11.40;97.90
12386;DHT22;6257;57.634;18.310;2023-05-07T07:27:08;11.70;98.70
12386;DHT22;6257;57.634;18.310;2023-05-07T07:29:35;12.00;98.40
12386;DHT22;6257;57.634;18.310;2023-05-07T07:32:02;12.10;98.10
12386;DHT22;6257;57.634;18.310;2023-05-07T07:34:29;12.30;97.20
12386;DHT22;6257;57.634;18.310;2023-05-07T07:36:56;12.30;94.70
12386;DHT22;6257;57.634;18.310;2023-05-07T07:39:23;12.50;95.50
12386;DHT22;6257;57.634;18.310;2023-05-07T07:41:52;12.80;92.70
12386;DHT22;6257;57.634;18.310;2023-05-07T07:44:19;13.20;94.00
12386;DHT22;6257;57.634;18.310;2023-05-07T07:46:46;13.60;92.70
12386;DHT22;6257;57.634;18.310;2023-05-07T07:49:13;14.10;90.90
12386;DHT22;6257;57.634;18.310;2023-05-07T07:51:40;14.40;91.50
12386;DHT22;6257;57.634;18.310;2023-05-07T07:54:08;14.60;91.70
12386;DHT22;6257;57.634;18.310;2023-05-07T07:56:35;14.90;91.60
12386;DHT22;6257;57.634;18.310;2023-05-07T07:59:03;15.40;90.00
12386;DHT22;6257;57.634;18.310;2023-05-07T08:01:30;16.00;90.80
12386;DHT22;6257;57.634;18.310;2023-05-07T08:03:58;16.30;86.70
12386;DHT22;6257;57.634;18.310;2023-05-07T08:06:25;16.70;85.40
12386;DHT22;6257;57.634;18.310;2023-05-07T08:08:52;17.10;86.30
12386;DHT22;6257;57.634;18.310;2023-05-07T08:11:19;18.00;84.00
12386;DHT22;6257;57.634;18.310;2023-05-07T08:13:46;18.90;80.60
12386;DHT22;6257;57.634;18.310;2023-05-07T08:16:15;19.10;76.30
12386;DHT22;6257;57.634;18.310;2023-05-07T08:18:42;19.80;75.50
12386;DHT22;6257;57.634;18.310;2023-05-07T08:21:09;20.60;72.50
12386;DHT22;6257;57.634;18.310;2023-05-07T08:23:36;21.90;65.30
12386;DHT22;6257;57.634;18.310;2023-05-07T08:26:03;22.70;63.20
12386;DHT22;6257;57.634;18.310;2023-05-07T08:28:30;23.00;60.40
12386;DHT22;6257;57.634;18.310;2023-05-07T08:30:58;23.60;59.60
12386;DHT22;6257;57.634;18.310;2023-05-07T08:33:28;24.40;56.90
12386;DHT22;6257;57.634;18.310;2023-05-07T08:35:55;24.80;55.60
12386;DHT22;6257;57.634;18.310;2023-05-07T08:38:22;25.20;54.80
12386;DHT22;6257;57.634;18.310;2023-05-07T08:40:49;25.60;54.40
12386;DHT22;6257;57.634;18.310;2023-05-07T08:43:17;23.00;52.80
12386;DHT22;6257;57.634;18.310;2023-05-07T08:45:45;22.90;53.20
12386;DHT22;6257;57.634;18.310;2023-05-07T08:48:16;22.00;53.70
12386;DHT22;6257;57.634;18.310;2023-05-07T08:50:44;21.50;53.30
12386;DHT22;6257;57.634;18.310;2023-05-07T08:53:12;20.40;54.70
12386;DHT22;6257;57.634;18.310;2023-05-07T08:55:39;18.30;56.70
12386;DHT22;6257;57.634;18.310;2023-05-07T08:58:06;16.50;60.50
12386;DHT22;6257;57.634;18.310;2023-05-07T09:05:28;12.40;65.90
12386;DHT22;6257;57.634;18.310;2023-05-07T09:07:59;11.70;72.50
12386;DHT22;6257;57.634;18.310;2023-05-07T09:10:26;11.70;72.50
12386;DHT22;6257;57.634;18.310;2023-05-07T09:12:53;11.60;72.20
12386;DHT22;6257;57.634;18.310;2023-05-07T09:15:20;11.60;78.30
12386;DHT22;6257;57.634;18.310;2023-05-07T09:17:47;11.10;80.10
12386;DHT22;6257;57.634;18.310;2023-05-07T09:20:14;10.80;81.60
12386;DHT22;6257;57.634;18.310;2023-05-07T09:22:42;10.80;83.20
12386;DHT22;6257;57.634;18.310;2023-05-07T09:27:41;10.50;91.30
12386;DHT22;6257;57.634;18.310;2023-05-07T09:30:09;10.40;90.30
12386;DHT22;6257;57.634;18.310;2023-05-07T09:32:36;10.40;87.20
12386;DHT22;6257;57.634;18.310;2023-05-07T09:35:05;10.60;89.00
12386;DHT22;6257;57.634;18.310;2023-05-07T09:37:32;10.70;77.40
12386;DHT22;6257;57.634;18.310;2023-05-07T09:40:00;10.60;78.20
12386;DHT22;6257;57.634;18.310;2023-05-07T09:42:28;10.30;78.80
12386;DHT22;6257;57.634;18.310;2023-05-07T09:44:56;10.30;79.40
12386;DHT22;6257;57.634;18.310;2023-05-07T09:47:24;10.50;83.50
12386;DHT22;6257;57.634;18.310;2023-05-07T09:49:56;10.50;80.30
12386;DHT22;6257;57.634;18.310;2023-05-07T09:52:24;10.40;81.70
12386;DHT22;6257;57.634;18.310;2023-05-07T09:54:55;10.30;79.60
12386;DHT22;6257;57.634;18.310;2023-05-07T09:57:26;10.20;85.80
12386;DHT22;6257;57.634;18.310;2023-05-07T09:59:55;10.20;82.70
12386;DHT22;6257;57.634;18.310;2023-05-07T10:02:23;10.20;87.50
12386;DHT22;6257;57.634;18.310;2023-05-07T10:04:52;10.20;86.20
12386;DHT22;6257;57.634;18.310;2023-05-07T10:07:21;10.20;87.50
12386;DHT22;6257;57.634;18.310;2023-05-07T10:09:50;10.10;78.60
12386;DHT22;6257;57.634;18.310;2023-05-07T10:14:45;10.10;85.60
12386;DHT22;6257;57.634;18.310;2023-05-07T10:17:16;10.00;83.00
12386;DHT22;6257;57.634;18.310;2023-05-07T10:19:44;10.10;84.90
12386;DHT22;6257;57.634;18.310;2023-05-07T10:22:13;10.10;85.00
12386;DHT22;6257;57.634;18.310;2023-05-07T10:24:41;10.20;85.20
12386;DHT22;6257;57.634;18.310;2023-05-07T10:27:11;10.00;81.50
12386;DHT22;6257;57.634;18.310;2023-05-07T10:29:48;10.00;77.70
12386;DHT22;6257;57.634;18.310;2023-05-07T10:32:33;10.00;76.20
12386;DHT22;6257;57.634;18.310;2023-05-07T10:35:04;9.90;75.40
12386;DHT22;6257;57.634;18.310;2023-05-07T10:37:33;10.00;80.40
12386;DHT22;6257;57.634;18.310;2023-05-07T10:40:01;10.10;78.30
12386;DHT22;6257;57.634;18.310;2023-05-07T10:42:28;10.00;79.00
12386;DHT22;6257;57.634;18.310;2023-05-07T10:44:55;9.90;85.20
12386;DHT22;6257;57.634;18.310;2023-05-07T10:50:20;10.00;88.20
12386;DHT22;6257;57.634;18.310;2023-05-07T10:53:23;10.20;88.60
12386;DHT22;6257;57.634;18.310;2023-05-07T10:56:25;10.20;87.00
12386;DHT22;6257;57.634;18.310;2023-05-07T10:58:53;10.00;85.30
12386;DHT22;6257;57.634;18.310;2023-05-07T11:01:50;9.90;89.00
12386;DHT22;6257;57.634;18.310;2023-05-07T11:04:19;10.00;90.20
12386;DHT22;6257;57.634;18.310;2023-05-07T11:10:01;9.60;86.60
12386;DHT22;6257;57.634;18.310;2023-05-07T11:12:54;9.50;87.20
12386;DHT22;6257;57.634;18.310;2023-05-07T11:15:42;9.40;89.30
12386;DHT22;6257;57.634;18.310;2023-05-07T11:18:10;9.40;86.30
12386;DHT22;6257;57.634;18.310;2023-05-07T11:20:53;9.40;90.80
12386;DHT22;6257;57.634;18.310;2023-05-07T11:23:55;9.40;88.00
12386;DHT22;6257;57.634;18.310;2023-05-07T11:26:24;9.50;91.30
12386;DHT22;6257;57.634;18.310;2023-05-07T11:28:52;9.60;90.20
12386;DHT22;6257;57.634;18.310;2023-05-07T11:31:24;9.70;89.70
12386;DHT22;6257;57.634;18.310;2023-05-07T11:33:53;9.70;91.30
12386;DHT22;6257;57.634;18.310;2023-05-07T11:38:49;9.80;88.30
12386;DHT22;6257;57.634;18.310;2023-05-07T11:41:16;9.70;90.00
12386;DHT22;6257;57.634;18.310;2023-05-07T11:43:58;9.70;89.90
12386;DHT22;6257;57.634;18.310;2023-05-07T11:46:26;9.70;91.20
12386;DHT22;6257;57.634;18.310;2023-05-07T11:48:54;9.70;90.80
12386;DHT22;6257;57.634;18.310;2023-05-07T11:56:19;9.50;90.70
12386;DHT22;6257;57.634;18.310;2023-05-07T11:58:47;9.60;89.70
12386;DHT22;6257;57.634;18.310;2023-05-07T12:01:15;9.80;90.70
12386;DHT22;6257;57.634;18.310;2023-05-07T12:03:45;9.80;90.50
12386;DHT22;6257;57.634;18.310;2023-05-07T12:06:14;9.90;86.60
12386;DHT22;6257;57.634;18.310;2023-05-07T12:08:43;9.90;87.70
12386;DHT22;6257;57.634;18.310;2023-05-07T12:11:14;9.90;88.10
12386;DHT22;6257;57.634;18.310;2023-05-07T12:16:11;9.90;87.80
12386;DHT22;6257;57.634;18.310;2023-05-07T12:18:38;9.90;84.70
12386;DHT22;6257;57.634;18.310;2023-05-07T12:21:06;9.90;82.40
12386;DHT22;6257;57.634;18.310;2023-05-07T12:23:34;9.90;89.00
12386;DHT22;6257;57.634;18.310;2023-05-07T12:26:04;10.00;86.40
12386;DHT22;6257;57.634;18.310;2023-05-07T12:28:31;10.00;83.00
12386;DHT22;6257;57.634;18.310;2023-05-07T12:31:03;10.10;81.20
12386;DHT22;6257;57.634;18.310;2023-05-07T12:33:31;10.10;81.70
12386;DHT22;6257;57.634;18.310;2023-05-07T12:36:00;10.10;84.60
12386;DHT22;6257;57.634;18.310;2023-05-07T12:38:35;10.20;85.80
12386;DHT22;6257;57.634;18.310;2023-05-07T12:43:31;10.20;80.60
12386;DHT22;6257;57.634;18.310;2023-05-07T12:46:00;10.20;79.30
12386;DHT22;6257;57.634;18.310;2023-05-07T12:50:56;10.10;81.60
12386;DHT22;6257;57.634;18.310;2023-05-07T12:53:24;10.10;79.30
12386;DHT22;6257;57.634;18.310;2023-05-07T12:55:52;10.20;84.40
12386;DHT22;6257;57.634;18.310;2023-05-07T12:58:27;10.20;79.20
12386;DHT22;6257;57.634;18.310;2023-05-07T13:00:55;10.20;79.80
12386;DHT22;6257;57.634;18.310;2023-05-07T13:03:28;10.30;78.70
12386;DHT22;6257;57.634;18.310;2023-05-07T13:05:56;10.40;77.40
12386;DHT22;6257;57.634;18.310;2023-05-07T13:08:29;10.40;78.10
12386;DHT22;6257;57.634;18.310;2023-05-07T13:10:58;10.40;77.20
12386;DHT22;6257;57.634;18.310;2023-05-07T13:13:27;10.40;78.80
12386;DHT22;6257;57.634;18.310;2023-05-07T13:15:54;10.50;75.60
12386;DHT22;6257;57.634;18.310;2023-05-07T13:18:21;10.50;74.00
12386;DHT22;6257;57.634;18.310;2023-05-07T13:20:48;10.60;74.40
12386;DHT22;6257;57.634;18.310;2023-05-07T13:23:15;10.60;73.90
12386;DHT22;6257;57.634;18.310;2023-05-07T13:25:42;10.70;72.20
12386;DHT22;6257;57.634;18.310;2023-05-07T13:28:09;10.70;70.00
12386;DHT22;6257;57.634;18.310;2023-05-07T13:30:38;10.70;75.20
12386;DHT22;6257;57.634;18.310;2023-05-07T13:33:06;10.80;71.00
12386;DHT22;6257;57.634;18.310;2023-05-07T13:35:33;10.80;70.90
12386;DHT22;6257;57.634;18.310;2023-05-07T13:38:00;10.80;71.30
12386;DHT22;6257;57.634;18.310;2023-05-07T13:40:33;10.80;70.30
12386;DHT22;6257;57.634;18.310;2023-05-07T13:43:01;10.70;71.20
12386;DHT22;6257;57.634;18.310;2023-05-07T13:45:28;10.70;70.60
12386;DHT22;6257;57.634;18.310;2023-05-07T13:50:25;10.70;67.70
12386;DHT22;6257;57.634;18.310;2023-05-07T13:52:55;10.60;67.80
12386;DHT22;6257;57.634;18.310;2023-05-07T13:55:23;10.50;69.20
12386;DHT22;6257;57.634;18.310;2023-05-07T13:57:55;10.50;70.00
12386;DHT22;6257;57.634;18.310;2023-05-07T14:00:24;10.40;69.50
12386;DHT22;6257;57.634;18.310;2023-05-07T14:02:51;10.50;71.90
12386;DHT22;6257;57.634;18.310;2023-05-07T14:05:20;10.60;68.80
12386;DHT22;6257;57.634;18.310;2023-05-07T14:07:48;10.70;69.10
12386;DHT22;6257;57.634;18.310;2023-05-07T14:10:17;10.70;67.90
12386;DHT22;6257;57.634;18.310;2023-05-07T14:12:45;10.80;69.20
12386;DHT22;6257;57.634;18.310;2023-05-07T14:15:12;10.70;67.90
12386;DHT22;6257;57.634;18.310;2023-05-07T14:17:39;10.60;67.60
12386;DHT22;6257;57.634;18.310;2023-05-07T14:20:07;10.70;68.90
12386;DHT22;6257;57.634;18.310;2023-05-07T14:25:06;10.60;68.00
12386;DHT22;6257;57.634;18.310;2023-05-07T14:27:33;10.60;68.00
12386;DHT22;6257;57.634;18.310;2023-05-07T14:30:00;10.50;68.50
12386;DHT22;6257;57.634;18.310;2023-05-07T14:32:27;10.50;70.80
12386;DHT22;6257;57.634;18.310;2023-05-07T14:34:54;10.50;69.00
12386;DHT22;6257;57.634;18.310;2023-05-07T14:37:21;10.50;69.90
12386;DHT22;6257;57.634;18.310;2023-05-07T14:39:50;10.60;66.80
12386;DHT22;6257;57.634;18.310;2023-05-07T14:42:17;10.60;67.50
12386;DHT22;6257;57.634;18.310;2023-05-07T14:44:44;10.60;69.10
12386;DHT22;6257;57.634;18.310;2023-05-07T14:47:12;10.60;66.40
12386;DHT22;6257;57.634;18.310;2023-05-07T14:49:39;10.60;68.50
12386;DHT22;6257;57.634;18.310;2023-05-07T14:52:06;10.50;65.20
12386;DHT22;6257;57.634;18.310;2023-05-07T14:54:36;10.50;66.70
12386;DHT22;6257;57.634;18.310;2023-05-07T14:57:05;10.40;66.00
12386;DHT22;6257;57.634;18.310;2023-05-07T14:59:33;10.40;67.30
12386;DHT22;6257;57.634;18.310;2023-05-07T15:02:00;10.40;69.90
12386;DHT22;6257;57.634;18.310;2023-05-07T15:04:27;10.40;67.70
12386;DHT22;6257;57.634;18.310;2023-05-07T15:06:54;10.40;67.80
12386;DHT22;6257;57.634;18.310;2023-05-07T15:09:21;10.50;67.00
12386;DHT22;6257;57.634;18.310;2023-05-07T15:11:48;10.50;63.70
12386;DHT22;6257;57.634;18.310;2023-05-07T15:16:44;10.30;67.70
12386;DHT22;6257;57.634;18.310;2023-05-07T15:19:11;10.20;67.50
12386;DHT22;6257;57.634;18.310;2023-05-07T15:26:41;10.30;63.50
12386;DHT22;6257;57.634;18.310;2023-05-07T15:29:08;10.30;64.70
12386;DHT22;6257;57.634;18.310;2023-05-07T15:34:04;10.40;64.70
12386;DHT22;6257;57.634;18.310;2023-05-07T15:36:31;10.40;64.20
12386;DHT22;6257;57.634;18.310;2023-05-07T15:38:58;10.40;63.50
12386;DHT22;6257;57.634;18.310;2023-05-07T15:41:27;10.40;65.00
12386;DHT22;6257;57.634;18.310;2023-05-07T15:43:54;10.30;66.50
12386;DHT22;6257;57.634;18.310;2023-05-07T15:46:23;10.30;64.80
12386;DHT22;6257;57.634;18.310;2023-05-07T15:48:52;10.30;68.90
12386;DHT22;6257;57.634;18.310;2023-05-07T15:51:20;10.30;68.70
12386;DHT22;6257;57.634;18.310;2023-05-07T15:53:47;10.40;67.30
12386;DHT22;6257;57.634;18.310;2023-05-07T15:56:14;10.50;64.60
12386;DHT22;6257;57.634;18.310;2023-05-07T15:58:41;10.50;65.10
12386;DHT22;6257;57.634;18.310;2023-05-07T16:01:08;10.50;65.00
12386;DHT22;6257;57.634;18.310;2023-05-07T16:03:35;10.50;64.30
12386;DHT22;6257;57.634;18.310;2023-05-07T16:08:32;10.40;64.50
12386;DHT22;6257;57.634;18.310;2023-05-07T16:10:59;10.40;67.90
12386;DHT22;6257;57.634;18.310;2023-05-07T16:13:26;10.30;63.70
12386;DHT22;6257;57.634;18.310;2023-05-07T16:15:55;10.20;66.30
12386;DHT22;6257;57.634;18.310;2023-05-07T16:18:23;10.20;66.00
12386;DHT22;6257;57.634;18.310;2023-05-07T16:20:50;10.10;66.10
12386;DHT22;6257;57.634;18.310;2023-05-07T16:25:46;11.80;68.20
12386;DHT22;6257;57.634;18.310;2023-05-07T16:28:13;10.00;66.40
12386;DHT22;6257;57.634;18.310;2023-05-07T16:30:41;10.00;64.70
12386;DHT22;6257;57.634;18.310;2023-05-07T16:33:08;9.90;68.30
12386;DHT22;6257;57.634;18.310;2023-05-07T16:35:35;9.80;65.30
12386;DHT22;6257;57.634;18.310;2023-05-07T16:38:02;9.90;63.70
12386;DHT22;6257;57.634;18.310;2023-05-07T16:43:04;9.80;64.50
12386;DHT22;6257;57.634;18.310;2023-05-07T16:45:31;9.80;66.30
12386;DHT22;6257;57.634;18.310;2023-05-07T16:47:58;9.70;68.90
12386;DHT22;6257;57.634;18.310;2023-05-07T16:50:25;9.60;69.90
12386;DHT22;6257;57.634;18.310;2023-05-07T16:52:52;9.60;66.70
12386;DHT22;6257;57.634;18.310;2023-05-07T16:55:19;9.70;68.30
12386;DHT22;6257;57.634;18.310;2023-05-07T16:57:48;9.70;67.30
12386;DHT22;6257;57.634;18.310;2023-05-07T17:00:15;9.70;67.10
12386;DHT22;6257;57.634;18.310;2023-05-07T17:02:42;9.70;67.40
12386;DHT22;6257;57.634;18.310;2023-05-07T17:05:10;9.70;69.30
12386;DHT22;6257;57.634;18.310;2023-05-07T17:07:37;9.60;70.10
12386;DHT22;6257;57.634;18.310;2023-05-07T17:10:05;9.50;70.40
12386;DHT22;6257;57.634;18.310;2023-05-07T17:12:32;9.40;71.60
12386;DHT22;6257;57.634;18.310;2023-05-07T17:15:02;9.40;71.20
12386;DHT22;6257;57.634;18.310;2023-05-07T17:17:29;9.30;72.40
12386;DHT22;6257;57.634;18.310;2023-05-07T17:19:57;9.20;71.80